Time;durP1;ratioP1;P1;durP2;ratioP2;P2;SDS_P1;SDS_P2;PMS_P1;PMS_P2;Temp;Humidity;BMP_temperature;BMP_pressure;BME280_temperature;BME280_humidity;BME280_pressure;Samples;Min_cycle;Max_cycle;Signal;HPM_P1;HPM_P2
2022/07/10 00:00:28;;;;;;;5.67;5.27;;;17.80;96.40;;;;;;5076306;28;20250;-45
2022/07/10 00:02:54;;;;;;;5.30;4.90;;;17.80;96.20;;;;;;5075581;28;20505;-46
2022/07/10 00:05:19;;;;;;;4.47;4.10;;;17.90;96.20;;;;;;5073840;28;20421;-45
2022/07/10 00:07:46;;;;;;;5.00;4.60;;;17.90;96.10;;;;;;5056387;28;20643;-44
2022/07/10 00:10:11;;;;;;;5.80;5.27;;;17.90;96.10;;;;;;5074658;28;20194;-43
2022/07/10 00:12:37;;;;;;;5.90;5.37;;;17.90;96.50;;;;;;5074876;28;20546;-45
2022/07/10 00:15:04;;;;;;;5.70;5.20;;;17.80;96.20;;;;;;5075092;28;20467;-45
2022/07/10 00:17:30;;;;;;;6.43;4.90;;;17.80;96.20;;;;;;5075238;28;20481;-44
2022/07/10 00:19:56;;;;;;;5.77;5.27;;;17.80;96.20;;;;;;5075776;28;20433;-44
2022/07/10 00:22:22;;;;;;;5.40;5.00;;;17.80;96.20;;;;;;5076152;28;20423;-45
2022/07/10 00:24:47;;;;;;;6.67;5.33;;;17.70;96.20;;;;;;5075428;28;20217;-45
2022/07/10 00:27:13;;;;;;;5.07;4.67;;;17.70;96.40;;;;;;5076488;28;20548;-45
2022/07/10 00:29:39;;;;;;;5.33;4.90;;;17.70;96.40;;;;;;5076450;28;20194;-44
2022/07/10 00:32:04;;;;;;;5.13;4.73;;;17.70;96.50;;;;;;5075143;28;20236;-43
2022/07/10 00:34:30;;;;;;;5.60;5.10;;;17.60;96.60;;;;;;5074965;28;20190;-45
2022/07/10 00:36:56;;;;;;;5.20;4.80;;;17.60;96.70;;;;;;5076090;28;20421;-44
2022/07/10 00:39:21;;;;;;;5.80;5.30;;;17.60;96.70;;;;;;5076169;28;20248;-45
2022/07/10 00:41:47;;;;;;;5.70;5.10;;;17.60;96.70;;;;;;5076621;28;20183;-45
2022/07/10 00:44:13;;;;;;;4.77;4.37;;;17.50;96.70;;;;;;5076574;28;20182;-43
2022/07/10 00:46:40;;;;;;;5.83;4.90;;;17.50;96.90;;;;;;5074747;28;20203;-45
2022/07/10 00:49:06;;;;;;;5.83;5.20;;;17.50;96.90;;;;;;5074107;28;20194;-44
2022/07/10 00:51:33;;;;;;;6.03;5.53;;;17.60;97.00;;;;;;5073951;28;20915;-43
2022/07/10 00:53:59;;;;;;;5.97;5.47;;;17.60;96.90;;;;;;5074846;28;20282;-43
2022/07/10 00:56:26;;;;;;;6.13;5.63;;;17.60;96.90;;;;;;5075666;28;20541;-44
2022/07/10 00:58:52;;;;;;;5.80;5.00;;;17.60;96.90;;;;;;5048991;28;20194;-45
2022/07/10 01:01:18;;;;;;;6.90;5.67;;;17.60;96.80;;;;;;5074969;28;20433;-44
2022/07/10 01:03:45;;;;;;;5.67;5.23;;;17.60;96.80;;;;;;5076690;28;20183;-44
2022/07/10 01:06:11;;;;;;;5.33;4.93;;;17.60;96.80;;;;;;5076500;28;20423;-43
2022/07/10 01:08:37;;;;;;;5.80;5.30;;;17.60;96.80;;;;;;5076164;28;20532;-43
2022/07/10 01:11:03;;;;;;;5.17;4.70;;;17.60;96.80;;;;;;5076191;28;20797;-45
2022/07/10 01:13:29;;;;;;;6.73;6.13;;;17.60;96.80;;;;;;5076156;28;20213;-45
2022/07/10 01:15:55;;;;;;;5.90;5.47;;;17.60;96.70;;;;;;5075143;28;20203;-47
2022/07/10 01:18:22;;;;;;;6.53;5.67;;;17.60;96.80;;;;;;5075844;28;20873;-44
2022/07/10 01:20:55;;;;;;;6.07;5.57;;;17.60;96.80;;;;;;5075860;28;20418;-46
2022/07/10 01:23:21;;;;;;;6.70;5.77;;;17.50;96.90;;;;;;5075708;28;20680;-44
2022/07/10 01:25:50;;;;;;;5.27;4.87;;;17.50;96.90;;;;;;5075396;28;20424;-47
2022/07/10 01:28:16;;;;;;;5.70;5.20;;;17.50;97.00;;;;;;5076470;28;20426;-45
2022/07/10 01:30:42;;;;;;;6.47;5.87;;;17.40;97.00;;;;;;5076803;28;20794;-44
2022/07/10 01:33:08;;;;;;;6.93;6.10;;;17.40;97.20;;;;;;5077060;28;20858;-44
2022/07/10 01:35:34;;;;;;;6.80;6.30;;;17.30;97.20;;;;;;5076703;28;20182;-44
2022/07/10 01:37:59;;;;;;;6.50;6.00;;;17.30;97.40;;;;;;5077023;28;20572;-45
2022/07/10 01:40:25;;;;;;;6.27;5.67;;;17.20;97.50;;;;;;5076186;28;20252;-44
2022/07/10 01:42:50;;;;;;;6.93;6.33;;;17.20;97.70;;;;;;5076265;28;20562;-46
2022/07/10 01:45:17;;;;;;;7.00;6.40;;;17.10;97.70;;;;;;5076069;28;20184;-44
2022/07/10 01:47:43;;;;;;;6.13;5.63;;;17.10;97.80;;;;;;5080631;28;20192;-46
2022/07/10 01:50:09;;;;;;;6.43;5.93;;;17.10;98.20;;;;;;5079837;28;20449;-44
2022/07/10 01:52:35;;;;;;;7.60;6.83;;;17.10;97.90;;;;;;5078040;28;20890;-45
2022/07/10 01:55:01;;;;;;;6.53;6.03;;;17.10;97.80;;;;;;5078355;28;20420;-45
2022/07/10 01:57:27;;;;;;;9.10;8.20;;;17.00;97.90;;;;;;5078274;28;20423;-45
2022/07/10 01:59:53;;;;;;;6.70;6.10;;;17.00;98.00;;;;;;5078645;28;20429;-42
2022/07/10 02:02:18;;;;;;;6.80;6.30;;;16.90;98.20;;;;;;5078265;28;20186;-44
2022/07/10 02:04:44;;;;;;;7.50;6.90;;;16.80;98.40;;;;;;5077743;28;20211;-42
2022/07/10 02:07:21;;;;;;;7.50;6.80;;;16.80;98.50;;;;;;5078272;28;20451;-42
2022/07/10 02:09:47;;;;;;;8.00;7.30;;;16.80;98.60;;;;;;5076610;28;20204;-45
2022/07/10 02:12:14;;;;;;;8.00;7.40;;;16.70;98.70;;;;;;5076833;28;20465;-42
2022/07/10 02:14:40;;;;;;;8.30;7.50;;;16.70;98.60;;;;;;5077590;28;20432;-42
2022/07/10 02:17:07;;;;;;;8.27;7.60;;;16.70;98.60;;;;;;5077244;28;20412;-43
2022/07/10 02:19:33;;;;;;;8.33;7.60;;;16.60;98.80;;;;;;5077408;28;20432;-43
2022/07/10 02:21:58;;;;;;;7.93;7.33;;;16.60;98.90;;;;;;5078224;28;20425;-42
2022/07/10 02:24:24;;;;;;;9.10;8.30;;;16.60;99.10;;;;;;5078618;28;20420;-42
2022/07/10 02:26:50;;;;;;;9.40;8.63;;;16.50;99.20;;;;;;5078546;28;20223;-44
2022/07/10 02:29:15;;;;;;;8.40;7.73;;;16.50;99.30;;;;;;5078827;28;20183;-43
2022/07/10 02:31:41;;;;;;;9.03;8.23;;;16.50;99.40;;;;;;5079912;28;20234;-42
2022/07/10 02:34:08;;;;;;;10.50;9.70;;;16.50;99.50;;;;;;5078989;28;20430;-43
2022/07/10 02:36:34;;;;;;;8.97;8.17;;;16.50;99.50;;;;;;5079191;28;20213;-43
2022/07/10 02:38:59;;;;;;;10.57;9.57;;;16.50;99.60;;;;;;5079476;28;20826;-44
2022/07/10 02:41:25;;;;;;;10.03;8.57;;;16.50;99.70;;;;;;5078718;28;20429;-41
2022/07/10 02:43:51;;;;;;;10.00;9.20;;;16.50;99.80;;;;;;5077938;28;20188;-42
2022/07/10 02:46:16;;;;;;;10.33;9.43;;;16.50;99.80;;;;;;5077603;28;20185;-43
2022/07/10 02:48:42;;;;;;;11.70;10.70;;;16.50;99.80;;;;;;5078049;28;20210;-45
2022/07/10 02:51:07;;;;;;;13.83;11.90;;;16.50;99.80;;;;;;5076385;28;20184;-41
2022/07/10 02:53:33;;;;;;;14.70;13.40;;;16.50;99.90;;;;;;5076306;28;20454;-45
2022/07/10 02:55:59;;;;;;;14.87;13.57;;;16.50;99.90;;;;;;5075706;28;20264;-43
2022/07/10 02:58:25;;;;;;;14.00;12.77;;;16.50;99.90;;;;;;5076661;28;20180;-45
2022/07/10 03:00:51;;;;;;;12.90;11.80;;;16.40;99.90;;;;;;5076691;28;20252;-43
2022/07/10 03:03:19;;;;;;;15.33;14.10;;;16.40;99.90;;;;;;5076359;28;20481;-44
2022/07/10 03:05:45;;;;;;;15.93;14.37;;;16.40;99.90;;;;;;5076984;28;20472;-46
2022/07/10 03:08:11;;;;;;;14.97;13.67;;;16.40;99.90;;;;;;5077478;28;20430;-44
2022/07/10 03:10:37;;;;;;;15.40;14.10;;;16.40;99.90;;;;;;5076884;28;20440;-44
2022/07/10 03:13:03;;;;;;;13.83;12.73;;;16.30;99.90;;;;;;5078115;28;20565;-43
2022/07/10 03:15:28;;;;;;;14.10;12.90;;;16.30;99.90;;;;;;5077856;28;20188;-44
2022/07/10 03:17:54;;;;;;;15.63;14.40;;;16.30;99.90;;;;;;5079088;28;20425;-42
2022/07/10 03:20:20;;;;;;;14.17;13.00;;;16.30;99.90;;;;;;5077158;28;20177;-45
2022/07/10 03:22:45;;;;;;;15.37;14.07;;;16.30;99.90;;;;;;5077703;28;20392;-43
2022/07/10 03:25:11;;;;;;;14.87;13.67;;;16.30;99.90;;;;;;5076395;28;20188;-42
2022/07/10 03:27:37;;;;;;;16.83;15.20;;;16.20;99.90;;;;;;5078317;28;20236;-45
2022/07/10 03:30:04;;;;;;;13.23;12.23;;;16.30;99.90;;;;;;5077601;28;20182;-46
2022/07/10 03:32:29;;;;;;;14.63;13.33;;;16.20;99.90;;;;;;5078772;28;20321;-44
2022/07/10 03:34:55;;;;;;;15.40;14.10;;;16.30;99.90;;;;;;5078424;28;20518;-45
2022/07/10 03:37:21;;;;;;;14.33;13.13;;;16.30;99.90;;;;;;5078756;28;20198;-44
2022/07/10 03:39:46;;;;;;;15.80;14.37;;;16.30;99.90;;;;;;5077714;28;20277;-44
2022/07/10 03:42:12;;;;;;;17.07;15.50;;;16.30;99.90;;;;;;5078349;28;20181;-43
2022/07/10 03:44:38;;;;;;;14.90;13.60;;;16.30;99.90;;;;;;5078086;28;20182;-44
2022/07/10 03:47:04;;;;;;;13.53;12.33;;;16.20;99.90;;;;;;5078294;28;20191;-45
2022/07/10 03:49:29;;;;;;;14.90;13.60;;;16.20;99.90;;;;;;5077594;28;20208;-44
2022/07/10 03:51:59;;;;;;;13.90;12.70;;;16.20;99.90;;;;;;5077673;28;20499;-43
2022/07/10 03:54:25;;;;;;;16.13;14.73;;;16.10;99.90;;;;;;5077051;28;20177;-43
2022/07/10 03:59:35;;;;;;;14.30;13.00;;;16.10;99.90;;;;;;5077700;28;20187;-44
2022/07/10 04:02:00;;;;;;;14.20;13.00;;;16.20;99.90;;;;;;5078083;28;20519;-43
2022/07/10 04:04:26;;;;;;;16.07;14.77;;;16.20;99.90;;;;;;5077627;28;20193;-43
2022/07/10 04:06:52;;;;;;;14.40;13.20;;;16.20;99.90;;;;;;5077754;28;20555;-43
2022/07/10 04:09:17;;;;;;;13.00;11.90;;;16.20;99.90;;;;;;5077248;28;20265;-43
2022/07/10 04:11:43;;;;;;;12.57;11.57;;;16.30;99.90;;;;;;5076561;28;20180;-42
2022/07/10 04:14:08;;;;;;;13.70;12.50;;;16.30;99.90;;;;;;5076561;28;20196;-43
2022/07/10 04:16:34;;;;;;;14.37;13.07;;;16.40;99.90;;;;;;5075658;28;20189;-42
2022/07/10 04:19:00;;;;;;;12.30;11.20;;;16.40;99.90;;;;;;5076832;28;20184;-44
2022/07/10 04:21:25;;;;;;;11.77;10.77;;;16.30;99.90;;;;;;5076594;28;20189;-44
2022/07/10 04:23:51;;;;;;;13.00;11.70;;;16.30;99.90;;;;;;5075567;28;20181;-45
2022/07/10 04:26:16;;;;;;;11.97;10.90;;;16.30;99.90;;;;;;5076872;28;20185;-41
2022/07/10 04:28:42;;;;;;;13.07;12.07;;;16.40;99.90;;;;;;5059820;28;20380;-46
2022/07/10 04:31:08;;;;;;;11.70;10.70;;;16.40;99.90;;;;;;5077016;28;20537;-45
2022/07/10 04:33:34;;;;;;;11.53;10.50;;;16.40;99.90;;;;;;5077426;28;20318;-44
2022/07/10 04:35:59;;;;;;;12.17;10.97;;;16.40;99.90;;;;;;5076593;28;20404;-45
2022/07/10 04:38:25;;;;;;;11.30;10.40;;;16.50;99.90;;;;;;5076334;28;20501;-44
2022/07/10 04:40:51;;;;;;;10.70;9.80;;;16.50;99.90;;;;;;5076224;28;20606;-45
2022/07/10 04:43:16;;;;;;;10.40;9.30;;;16.60;99.90;;;;;;5076625;28;20281;-44
2022/07/10 04:45:42;;;;;;;11.50;10.50;;;16.60;99.90;;;;;;5076291;28;20429;-44
2022/07/10 04:48:08;;;;;;;11.83;10.63;;;16.60;99.90;;;;;;5076342;28;20178;-46
2022/07/10 04:50:33;;;;;;;10.27;9.37;;;16.60;99.90;;;;;;5076469;28;20178;-44
2022/07/10 04:52:59;;;;;;;10.03;9.13;;;16.60;99.90;;;;;;5077383;28;20515;-44
2022/07/10 04:55:25;;;;;;;10.77;9.83;;;16.60;99.90;;;;;;5076281;28;20328;-45
2022/07/10 04:57:50;;;;;;;9.50;8.70;;;16.60;99.90;;;;;;5077228;28;20249;-46
2022/07/10 05:00:16;;;;;;;10.20;9.20;;;16.50;99.90;;;;;;5077037;28;20407;-46
2022/07/10 05:02:42;;;;;;;9.83;9.03;;;16.50;99.90;;;;;;5076619;28;20225;-45
2022/07/10 05:05:08;;;;;;;9.37;8.47;;;16.40;99.90;;;;;;5077020;28;20209;-43
2022/07/10 05:07:33;;;;;;;8.83;7.93;;;16.40;99.90;;;;;;5077434;28;20420;-47
2022/07/10 05:09:59;;;;;;;9.10;7.70;;;16.40;99.90;;;;;;5077168;28;20428;-44
2022/07/10 05:12:25;;;;;;;9.50;8.70;;;16.40;99.90;;;;;;5077001;28;20220;-44
2022/07/10 05:14:51;;;;;;;7.80;7.10;;;16.50;99.90;;;;;;5076302;28;20182;-44
2022/07/10 05:17:16;;;;;;;9.10;8.20;;;16.50;99.80;;;;;;5076412;28;20420;-50
2022/07/10 05:19:42;;;;;;;9.00;7.80;;;16.50;99.60;;;;;;5076987;28;20177;-44
2022/07/10 05:22:09;;;;;;;9.67;7.67;;;16.50;99.50;;;;;;5080484;28;20194;-44
2022/07/10 05:24:35;;;;;;;9.07;7.73;;;16.50;99.50;;;;;;5080606;28;20182;-43
2022/07/10 05:27:01;;;;;;;10.00;8.47;;;16.40;99.60;;;;;;5079413;28;20462;-45
2022/07/10 05:29:26;;;;;;;8.20;7.50;;;16.40;99.60;;;;;;5080000;28;20455;-43
2022/07/10 05:31:52;;;;;;;8.17;7.47;;;16.40;99.60;;;;;;5079077;28;20646;-45
2022/07/10 05:34:18;;;;;;;7.60;6.80;;;16.50;99.40;;;;;;5080329;28;20202;-43
2022/07/10 05:36:43;;;;;;;11.00;7.13;;;16.50;99.20;;;;;;5079169;28;20172;-45
2022/07/10 05:39:09;;;;;;;6.50;5.80;;;16.60;98.80;;;;;;5077069;28;20308;-46
2022/07/10 05:41:34;;;;;;;7.50;6.10;;;16.50;98.80;;;;;;5077549;28;20331;-45
2022/07/10 05:44:00;;;;;;;6.17;5.63;;;16.60;99.10;;;;;;5079795;28;20455;-49
2022/07/10 05:46:26;;;;;;;7.93;5.60;;;16.60;98.10;;;;;;5079399;28;20213;-44
2022/07/10 05:48:51;;;;;;;6.60;6.00;;;16.60;97.60;;;;;;5077073;28;20524;-44
2022/07/10 05:51:17;;;;;;;6.00;5.13;;;16.60;97.80;;;;;;5078702;28;20431;-45
2022/07/10 05:53:43;;;;;;;5.57;5.03;;;16.70;97.70;;;;;;5060670;28;20282;-42
2022/07/10 05:56:08;;;;;;;5.93;5.20;;;16.80;97.80;;;;;;5075523;28;20235;-45
2022/07/10 05:58:34;;;;;;;4.90;4.50;;;17.00;97.10;;;;;;5077087;28;20186;-44
2022/07/10 06:01:00;;;;;;;5.33;4.83;;;17.10;96.60;;;;;;5077079;28;20181;-44
2022/07/10 06:03:26;;;;;;;4.77;4.33;;;17.20;96.20;;;;;;5077021;28;20192;-43
2022/07/10 06:05:51;;;;;;;5.20;3.60;;;17.40;95.60;;;;;;5077147;28;20462;-44
2022/07/10 06:08:17;;;;;;;4.20;3.80;;;17.60;95.00;;;;;;5075911;28;20431;-43
2022/07/10 06:10:46;;;;;;;4.73;4.13;;;17.70;94.10;;;;;;5076420;28;20190;-44
2022/07/10 06:13:12;;;;;;;7.63;3.80;;;17.80;93.50;;;;;;5076673;28;20274;-45
2022/07/10 06:15:38;;;;;;;4.63;3.30;;;17.90;93.30;;;;;;5076723;28;20424;-44
2022/07/10 06:18:04;;;;;;;3.40;3.10;;;18.20;92.80;;;;;;5076337;28;20806;-46
2022/07/10 06:20:30;;;;;;;8.23;3.70;;;18.40;92.70;;;;;;5076103;28;20674;-45
2022/07/10 06:22:56;;;;;;;4.30;3.00;;;18.70;92.20;;;;;;5076692;28;20171;-45
2022/07/10 06:25:22;;;;;;;5.83;3.40;;;18.60;91.20;;;;;;5078274;28;20517;-45
2022/07/10 06:27:48;;;;;;;4.93;3.57;;;18.50;90.80;;;;;;5078161;28;20456;-45
2022/07/10 06:30:13;;;;;;;3.40;3.10;;;18.40;90.80;;;;;;5077743;28;20193;-46
2022/07/10 06:32:39;;;;;;;3.40;3.07;;;18.30;91.00;;;;;;5075887;28;20487;-46
2022/07/10 06:35:07;;;;;;;5.83;3.33;;;18.30;91.40;;;;;;5077445;28;20257;-45
2022/07/10 06:37:33;;;;;;;5.43;3.83;;;18.20;91.40;;;;;;5077314;28;20426;-44
2022/07/10 06:39:58;;;;;;;5.03;3.67;;;18.20;91.50;;;;;;5077130;28;20427;-44
2022/07/10 06:42:24;;;;;;;3.50;3.20;;;18.20;91.80;;;;;;5075486;28;20413;-45
2022/07/10 06:44:50;;;;;;;4.50;3.00;;;18.30;91.90;;;;;;5077945;28;20384;-45
2022/07/10 06:50:06;;;;;;;7.03;3.03;;;18.30;92.00;;;;;;5077511;28;20191;-45
2022/07/10 06:52:33;;;;;;;3.93;2.90;;;18.60;91.80;;;;;;5076939;28;20467;-56
2022/07/10 06:54:59;;;;;;;7.47;3.20;;;18.70;91.00;;;;;;5075495;28;20477;-45
2022/07/10 06:57:25;;;;;;;5.50;3.10;;;18.80;90.80;;;;;;5075381;28;20420;-44
2022/07/10 06:59:52;;;;;;;5.80;2.93;;;18.80;90.70;;;;;;5073604;28;20432;-45
2022/07/10 07:02:18;;;;;;;3.50;3.20;;;18.90;90.00;;;;;;5072019;28;20378;-46
2022/07/10 07:04:46;;;;;;;4.60;3.07;;;18.80;88.00;;;;;;5072313;28;20510;-45
2022/07/10 07:07:15;;;;;;;3.80;2.80;;;18.70;88.40;;;;;;5074834;28;20415;-46
2022/07/10 07:09:43;;;;;;;4.27;2.93;;;18.50;87.80;;;;;;5074803;28;20436;-44
2022/07/10 07:12:09;;;;;;;3.00;2.70;;;18.40;88.50;;;;;;5074226;28;20490;-45
2022/07/10 07:14:35;;;;;;;2.60;2.40;;;18.30;90.10;;;;;;5074598;28;20421;-45
2022/07/10 07:17:05;;;;;;;4.00;2.90;;;18.20;90.20;;;;;;5076901;28;20177;-44
2022/07/10 07:19:32;;;;;;;3.40;2.70;;;18.20;89.00;;;;;;5077849;28;20807;-45
2022/07/10 07:24:43;;;;;;;5.70;4.43;;;18.00;88.60;;;;;;5076836;28;20775;-47
2022/07/10 07:27:08;;;;;;;6.20;2.93;;;17.90;89.40;;;;;;5075566;28;20428;-44
2022/07/10 07:29:34;;;;;;;4.00;2.50;;;17.80;89.60;;;;;;5075817;28;20770;-43
2022/07/10 07:32:00;;;;;;;4.43;2.93;;;17.80;88.70;;;;;;5076243;28;20530;-45
2022/07/10 07:34:26;;;;;;;4.17;2.80;;;17.80;88.60;;;;;;5074881;28;20167;-46
2022/07/10 07:36:51;;;;;;;4.10;2.93;;;17.70;89.20;;;;;;5075690;28;20188;-47
2022/07/10 07:39:17;;;;;;;3.97;2.60;;;17.80;89.80;;;;;;5075425;28;20412;-45
2022/07/10 07:41:42;;;;;;;5.10;2.40;;;17.90;90.10;;;;;;5076190;28;20177;-46
2022/07/10 07:44:08;;;;;;;2.63;2.20;;;18.40;90.10;;;;;;5075396;28;20621;-44
2022/07/10 07:46:34;;;;;;;5.83;2.70;;;18.80;87.20;;;;;;5075330;28;20490;-45
2022/07/10 07:49:00;;;;;;;3.93;2.30;;;19.10;85.40;;;;;;5075715;28;20272;-46
2022/07/10 07:51:25;;;;;;;2.73;2.20;;;19.20;84.60;;;;;;5077023;28;20486;-47
2022/07/10 07:53:51;;;;;;;3.70;1.90;;;19.10;82.80;;;;;;5077047;28;20619;-46
2022/07/10 07:56:17;;;;;;;3.20;2.17;;;19.10;82.50;;;;;;5074794;28;20555;-45
2022/07/10 07:58:42;;;;;;;3.97;2.30;;;18.90;82.20;;;;;;5074473;28;20260;-47
2022/07/10 08:01:08;;;;;;;5.10;2.80;;;18.90;83.00;;;;;;5073367;28;20168;-45
2022/07/10 08:03:33;;;;;;;5.37;3.47;;;19.20;83.70;;;;;;5073181;28;20504;-45
2022/07/10 08:05:59;;;;;;;6.67;2.67;;;19.70;83.40;;;;;;5071724;28;20441;-46
2022/07/10 08:08:25;;;;;;;5.17;2.40;;;20.00;81.60;;;;;;5071658;28;20494;-47
2022/07/10 08:10:50;;;;;;;3.90;2.80;;;20.20;80.60;;;;;;5072853;28;20225;-45
2022/07/10 08:13:16;;;;;;;4.50;2.20;;;20.50;79.20;;;;;;5073956;28;20209;-46
2022/07/10 08:15:41;;;;;;;3.63;2.50;;;20.80;79.10;;;;;;5073512;28;20174;-46
2022/07/10 08:18:07;;;;;;;2.33;2.10;;;20.90;76.80;;;;;;5074543;28;20173;-47
2022/07/10 08:20:33;;;;;;;3.10;2.33;;;20.40;77.30;;;;;;5075378;28;20175;-47
2022/07/10 08:22:59;;;;;;;2.80;2.47;;;20.40;75.80;;;;;;5074364;28;20216;-45
2022/07/10 08:25:24;;;;;;;4.60;2.50;;;20.40;75.50;;;;;;5072917;28;20216;-44
2022/07/10 08:27:50;;;;;;;4.67;3.03;;;20.70;75.70;;;;;;5073837;28;20179;-46
2022/07/10 08:30:17;;;;;;;4.67;2.40;;;21.10;74.30;;;;;;5073589;28;20184;-48
2022/07/10 08:32:43;;;;;;;2.53;2.33;;;21.70;73.70;;;;;;5075012;28;20470;-46
2022/07/10 08:35:09;;;;;;;5.33;2.03;;;21.90;71.30;;;;;;5076754;28;20771;-47
2022/07/10 08:37:44;;;;;;;2.70;2.00;;;22.10;69.10;;;;;;5076333;28;20179;-46
2022/07/10 08:40:14;;;;;;;4.40;1.90;;;21.90;67.50;;;;;;5074665;28;20549;-45
2022/07/10 08:42:41;;;;;;;3.83;2.00;;;21.60;68.80;;;;;;5075722;28;20447;-45
2022/07/10 08:45:07;;;;;;;3.70;2.20;;;21.80;70.40;;;;;;5075251;28;20513;-46
2022/07/10 08:47:38;;;;;;;3.67;2.97;;;21.80;69.10;;;;;;5075273;28;20426;-45
2022/07/10 08:50:04;;;;;;;6.70;3.40;;;21.80;69.10;;;;;;5073295;28;20648;-45
2022/07/10 08:52:30;;;;;;;2.60;2.40;;;21.60;68.70;;;;;;5073284;28;20478;-45
2022/07/10 08:54:56;;;;;;;2.43;1.93;;;21.80;70.80;;;;;;5071893;28;20479;-45
2022/07/10 08:57:23;;;;;;;2.80;2.10;;;22.20;68.50;;;;;;5072967;28;20191;-44
2022/07/10 08:59:48;;;;;;;3.13;2.80;;;22.60;66.80;;;;;;5072528;28;20460;-45
2022/07/10 09:02:14;;;;;;;3.10;2.70;;;22.70;64.70;;;;;;5070660;28;20840;-45
2022/07/10 09:04:40;;;;;;;6.63;3.03;;;23.00;63.10;;;;;;5070704;28;20176;-45
2022/07/10 09:07:05;;;;;;;2.53;2.30;;;22.60;61.20;;;;;;5071435;28;20183;-46
2022/07/10 09:09:31;;;;;;;2.30;1.90;;;22.70;60.90;;;;;;5071173;28;20175;-44
2022/07/10 09:11:57;;;;;;;3.27;2.20;;;22.40;62.80;;;;;;5070125;28;20181;-44
2022/07/10 09:14:25;;;;;;;2.60;2.40;;;22.60;62.30;;;;;;5070725;28;20172;-47
2022/07/10 09:16:51;;;;;;;2.30;2.10;;;22.70;61.40;;;;;;5070551;28;20420;-46
2022/07/10 09:19:24;;;;;;;3.50;2.80;;;22.80;61.40;;;;;;5073348;28;20405;-47
2022/07/10 09:22:07;;;;;;;3.77;2.40;;;23.00;62.00;;;;;;5073285;28;20773;-46
2022/07/10 09:24:41;;;;;;;2.60;2.40;;;22.70;59.90;;;;;;5056275;28;20428;-47
2022/07/10 09:27:07;;;;;;;3.50;2.20;;;22.60;60.30;;;;;;5071268;28;20439;-45
2022/07/10 09:29:44;;;;;;;4.30;2.90;;;22.70;61.50;;;;;;5071084;28;20838;-47
2022/07/10 09:32:10;;;;;;;2.83;2.27;;;22.70;59.00;;;;;;5072633;28;20486;-44
2022/07/10 09:34:42;;;;;;;4.80;2.47;;;22.80;59.80;;;;;;5072666;28;20412;-44
2022/07/10 09:37:17;;;;;;;4.03;2.87;;;23.00;59.80;;;;;;5072006;28;20442;-44
2022/07/10 09:39:56;;;;;;;3.83;3.10;;;22.90;59.00;;;;;;5072509;28;20418;-45
2022/07/10 09:42:26;;;;;;;4.60;2.90;;;22.50;59.30;;;;;;5072405;28;20462;-47
2022/07/10 09:44:52;;;;;;;4.07;3.00;;;22.00;60.00;;;;;;5072392;28;20423;-47
2022/07/10 09:47:22;;;;;;;7.07;2.80;;;21.70;62.10;;;;;;5039891;28;20440;-45
2022/07/10 09:49:48;;;;;;;5.57;3.60;;;21.90;59.60;;;;;;5074465;28;20694;-46
2022/07/10 09:52:14;;;;;;;3.60;2.90;;;20.90;61.20;;;;;;5072931;28;20543;-46
2022/07/10 09:54:40;;;;;;;4.33;2.67;;;20.70;63.00;;;;;;5054402;28;20178;-47
2022/07/10 09:57:07;;;;;;;6.33;2.87;;;20.60;64.10;;;;;;5051966;28;20439;-44
2022/07/10 09:59:33;;;;;;;6.40;3.00;;;20.70;64.20;;;;;;5051122;28;20499;-45
2022/07/10 10:02:00;;;;;;;3.63;3.00;;;20.80;65.10;;;;;;5050041;28;20896;-45
2022/07/10 10:04:28;;;;;;;3.03;2.40;;;21.40;63.40;;;;;;5052154;28;20175;-45
2022/07/10 10:06:56;;;;;;;3.60;2.73;;;22.20;64.90;;;;;;5051524;28;20428;-44
2022/07/10 10:09:34;;;;;;;3.90;2.70;;;22.60;60.80;;;;;;5054286;28;20424;-49
2022/07/10 10:12:04;;;;;;;3.70;2.93;;;22.70;59.80;;;;;;5056484;28;20436;-48
2022/07/10 10:14:31;;;;;;;4.17;3.53;;;22.50;58.50;;;;;;5056972;28;20409;-48
2022/07/10 10:16:57;;;;;;;3.47;3.10;;;21.60;59.20;;;;;;5055838;28;20437;-45
2022/07/10 10:22:13;;;;;;;3.30;2.70;;;20.50;63.80;;;;;;5057136;28;20469;-46
2022/07/10 10:24:40;;;;;;;4.67;3.17;;;21.30;65.70;;;;;;5039126;28;20424;-43
2022/07/10 10:27:06;;;;;;;3.73;3.00;;;22.00;62.00;;;;;;5057006;28;20691;-43
2022/07/10 10:29:32;;;;;;;3.17;2.30;;;22.90;62.20;;;;;;5056549;28;20418;-45
2022/07/10 10:31:58;;;;;;;3.50;2.80;;;23.50;58.60;;;;;;5057536;28;20572;-46
2022/07/10 10:34:43;;;;;;;3.20;2.50;;;24.10;57.60;;;;;;5057385;28;20173;-47
2022/07/10 10:37:27;;;;;;;4.37;2.97;;;24.60;55.90;;;;;;5055844;28;20441;-48
2022/07/10 10:39:54;;;;;;;3.43;2.47;;;25.00;55.20;;;;;;5056302;28;20418;-44
2022/07/10 10:42:35;;;;;;;4.37;3.27;;;25.20;54.00;;;;;;5056198;28;21218;-46
2022/07/10 10:45:21;;;;;;;3.80;2.80;;;24.50;52.80;;;;;;5071648;28;20843;-47
2022/07/10 10:48:09;;;;;;;4.20;3.10;;;24.30;53.90;;;;;;5062125;28;21037;-46
2022/07/10 10:50:45;;;;;;;4.20;2.87;;;24.50;53.80;;;;;;5077331;28;20442;-55
2022/07/10 10:53:17;;;;;;;3.00;2.70;;;24.20;53.30;;;;;;5077944;28;20686;-46
2022/07/10 10:56:07;;;;;;;4.60;2.80;;;24.10;55.10;;;;;;5077937;28;20445;-45
2022/07/10 10:58:38;;;;;;;4.63;2.93;;;24.50;54.30;;;;;;5074817;28;20894;-44
2022/07/10 11:01:24;;;;;;;2.53;2.33;;;25.00;52.70;;;;;;5074758;28;20706;-46
2022/07/10 11:04:05;;;;;;;2.30;2.10;;;25.50;51.50;;;;;;5075225;28;20412;-45
2022/07/10 11:06:51;;;;;;;3.50;2.83;;;26.10;50.40;;;;;;5076157;28;20421;-44
2022/07/10 11:09:25;;;;;;;2.40;2.20;;;26.60;49.80;;;;;;5077066;28;20412;-46
2022/07/10 11:12:17;;;;;;;3.60;2.10;;;27.00;50.10;;;;;;5076984;28;20418;-46
2022/07/10 11:14:49;;;;;;;3.57;3.00;;;27.50;49.80;;;;;;5075017;28;20416;-46
2022/07/10 11:17:14;;;;;;;3.80;2.90;;;27.30;47.80;;;;;;5077905;28;20526;-45
2022/07/10 11:19:40;;;;;;;4.53;2.50;;;26.90;48.10;;;;;;5076705;28;20503;-47
2022/07/10 11:22:49;;;;;;;3.20;2.40;;;26.70;47.00;;;;;;5076863;28;20596;-48
2022/07/10 11:25:44;;;;;;;3.93;3.60;;;26.20;46.70;;;;;;5034353;28;20182;-45
2022/07/10 11:28:12;;;;;;;5.00;3.93;;;25.70;48.00;;;;;;5017053;28;20446;-45
2022/07/10 11:30:45;;;;;;;5.20;4.40;;;25.10;49.20;;;;;;5057906;28;20566;-55
2022/07/10 11:33:11;;;;;;;4.07;3.67;;;24.70;50.20;;;;;;5077742;28;20478;-46
2022/07/10 11:35:39;;;;;;;2.53;2.30;;;24.40;50.20;;;;;;5077747;28;20856;-44
2022/07/10 11:38:04;;;;;;;4.23;2.97;;;24.40;50.30;;;;;;5077466;28;20433;-45
2022/07/10 11:40:30;;;;;;;4.20;2.70;;;24.50;49.10;;;;;;5077767;28;20456;-46
2022/07/10 11:42:57;;;;;;;3.23;2.50;;;24.90;49.50;;;;;;5074831;28;20187;-45
2022/07/10 11:45:30;;;;;;;4.07;2.30;;;25.40;48.20;;;;;;5076708;28;20539;-45
2022/07/10 11:47:56;;;;;;;2.60;2.00;;;25.80;48.60;;;;;;5077146;28;20433;-47
2022/07/10 11:50:22;;;;;;;4.57;2.93;;;25.70;48.40;;;;;;5075254;28;20437;-45
2022/07/10 11:52:48;;;;;;;2.20;1.90;;;25.70;48.60;;;;;;5075138;28;20531;-47
2022/07/10 11:55:19;;;;;;;3.70;1.80;;;26.10;50.20;;;;;;5073142;28;20421;-44
2022/07/10 11:57:48;;;;;;;3.40;2.17;;;26.80;48.00;;;;;;5074904;28;20496;-45
2022/07/10 12:00:30;;;;;;;1.90;1.57;;;26.90;44.60;;;;;;5074547;28;20765;-44
2022/07/10 12:02:57;;;;;;;2.27;1.80;;;26.50;45.50;;;;;;5073132;28;20546;-47
2022/07/10 12:05:33;;;;;;;3.07;2.10;;;26.90;44.50;;;;;;5074512;28;20419;-48
2022/07/10 12:07:59;;;;;;;4.43;1.73;;;26.90;45.60;;;;;;5073912;28;20541;-45
2022/07/10 12:10:32;;;;;;;3.07;1.50;;;27.20;46.50;;;;;;5076516;28;20911;-44
2022/07/10 12:13:11;;;;;;;3.43;1.60;;;27.30;46.60;;;;;;5075640;28;20509;-45
2022/07/10 12:15:38;;;;;;;3.70;1.50;;;27.60;44.70;;;;;;5075632;28;20418;-46
2022/07/10 12:18:23;;;;;;;3.30;1.50;;;27.90;44.50;;;;;;5075599;28;20479;-45
2022/07/10 12:20:49;;;;;;;4.23;1.70;;;28.20;42.70;;;;;;5074697;28;20421;-48
2022/07/10 12:23:17;;;;;;;2.63;1.50;;;28.50;42.00;;;;;;5073761;28;20416;-46
2022/07/10 12:25:51;;;;;;;3.83;1.80;;;28.70;41.20;;;;;;5074639;28;20670;-47
2022/07/10 12:28:17;;;;;;;2.50;1.47;;;28.30;42.30;;;;;;5073359;28;20434;-45
2022/07/10 12:30:49;;;;;;;3.30;1.40;;;28.40;42.10;;;;;;5073119;28;20471;-47
2022/07/10 12:33:19;;;;;;;2.47;1.47;;;28.50;41.50;;;;;;5072236;28;20487;-47
2022/07/10 12:35:56;;;;;;;2.87;1.30;;;28.50;40.40;;;;;;5072714;28;20416;-46
2022/07/10 12:38:24;;;;;;;3.20;1.80;;;28.40;41.40;;;;;;5073659;28;20429;-46
2022/07/10 12:40:51;;;;;;;3.27;1.70;;;28.70;41.80;;;;;;5075276;28;20415;-46
2022/07/10 12:43:27;;;;;;;3.80;1.53;;;28.90;40.90;;;;;;5074524;28;20436;-48
2022/07/10 12:46:28;;;;;;;3.20;1.20;;;28.90;39.90;;;;;;5075038;28;20431;-45
2022/07/10 12:49:23;;;;;;;2.20;1.53;;;29.10;41.20;;;;;;5013857;28;20580;-49
2022/07/10 12:51:48;;;;;;;3.30;1.70;;;29.40;38.80;;;;;;5064079;28;20427;-47
2022/07/10 12:54:34;;;;;;;2.10;1.13;;;29.50;38.30;;;;;;5075727;28;20529;-49
2022/07/10 12:57:00;;;;;;;2.40;1.30;;;29.20;38.30;;;;;;5075467;28;20224;-46